Time;durP1;ratioP1;P1;durP2;ratioP2;P2;SDS_P1;SDS_P2;PMS_P1;PMS_P2;Temp;Humidity;BMP_temperature;BMP_pressure;BME280_temperature;BME280_humidity;BME280_pressure;Samples;Min_cycle;Max_cycle;Signal;HPM_P1;HPM_P2
2022/08/25 00:00:43;;;;;;;1.87;1.33;;;26.60;44.20;;;;;;4972014;28;20622;-79
2022/08/25 00:03:11;;;;;;;2.33;1.40;;;26.60;44.70;;;;;;4972324;28;20606;-79
2022/08/25 00:05:36;;;;;;;3.33;1.37;;;26.50;44.30;;;;;;4972516;28;20583;-78
2022/08/25 00:08:05;;;;;;;2.03;1.10;;;26.50;44.40;;;;;;4972930;28;21124;-79
2022/08/25 00:10:33;;;;;;;2.40;1.30;;;26.50;44.50;;;;;;4972918;28;20190;-78
2022/08/25 00:13:00;;;;;;;1.90;1.10;;;26.50;44.60;;;;;;4975342;28;20666;-78
2022/08/25 00:15:27;;;;;;;3.00;1.50;;;26.40;44.70;;;;;;4972548;28;20670;-78
2022/08/25 00:17:54;;;;;;;2.73;1.17;;;26.40;44.70;;;;;;4954928;28;20638;-78
2022/08/25 00:20:21;;;;;;;2.50;1.20;;;26.40;44.80;;;;;;4955730;28;20622;-78
2022/08/25 00:22:49;;;;;;;2.20;1.50;;;26.30;45.00;;;;;;4974336;28;20591;-78
2022/08/25 00:25:16;;;;;;;2.30;1.60;;;26.20;44.90;;;;;;4957052;28;20563;-78
2022/08/25 00:27:42;;;;;;;3.40;1.20;;;26.20;45.00;;;;;;4956853;28;20559;-79
2022/08/25 00:30:09;;;;;;;3.13;1.20;;;26.20;45.00;;;;;;4956779;28;20583;-78
2022/08/25 00:32:35;;;;;;;2.00;1.30;;;26.20;45.20;;;;;;4973122;28;20611;-80
2022/08/25 00:35:03;;;;;;;2.27;1.17;;;26.10;45.30;;;;;;4973509;28;20634;-78
2022/08/25 00:37:28;;;;;;;3.03;1.50;;;26.10;45.30;;;;;;4976214;28;20725;-80
2022/08/25 00:39:55;;;;;;;4.07;1.80;;;26.10;45.40;;;;;;4958778;28;21171;-76
2022/08/25 00:42:23;;;;;;;2.03;1.30;;;26.00;45.70;;;;;;4976639;28;20187;-79
2022/08/25 00:44:49;;;;;;;3.60;1.30;;;26.00;45.50;;;;;;4958894;28;20583;-78
2022/08/25 00:47:16;;;;;;;4.07;1.20;;;26.00;45.60;;;;;;4978026;28;20586;-78
2022/08/25 00:49:55;;;;;;;3.60;1.47;;;25.90;45.60;;;;;;4978405;28;21003;-78
2022/08/25 00:52:32;;;;;;;2.77;1.20;;;25.90;45.80;;;;;;4975476;28;20689;-79
2022/08/25 00:55:00;;;;;;;2.57;1.00;;;25.90;45.90;;;;;;4958260;28;20567;-79
2022/08/25 00:57:39;;;;;;;2.80;1.23;;;25.90;45.80;;;;;;4975397;28;20578;-78
2022/08/25 01:00:20;;;;;;;3.27;1.10;;;25.80;45.90;;;;;;4975021;28;20980;-79
2022/08/25 01:02:46;;;;;;;2.90;1.10;;;25.80;46.00;;;;;;4957847;28;20607;-78
2022/08/25 01:05:12;;;;;;;2.67;1.20;;;25.80;46.00;;;;;;4975459;28;20582;-79
2022/08/25 01:07:39;;;;;;;2.33;1.07;;;25.70;46.00;;;;;;4975322;28;20176;-79
2022/08/25 01:10:07;;;;;;;4.63;1.50;;;25.70;46.10;;;;;;4974860;28;20263;-80
2022/08/25 01:12:36;;;;;;;1.87;1.27;;;25.70;46.20;;;;;;4957565;28;20676;-79
2022/08/25 01:15:04;;;;;;;2.70;1.40;;;25.60;46.30;;;;;;4975109;28;20578;-78
2022/08/25 01:17:50;;;;;;;1.90;1.23;;;25.60;46.30;;;;;;4974916;28;20567;-78
2022/08/25 01:20:18;;;;;;;2.03;1.07;;;25.50;46.40;;;;;;4974620;28;20622;-79
2022/08/25 01:22:45;;;;;;;1.83;1.10;;;25.50;46.60;;;;;;4974847;28;20598;-78
2022/08/25 01:25:21;;;;;;;2.53;1.30;;;25.50;46.40;;;;;;4979490;28;20571;-79
2022/08/25 01:27:47;;;;;;;2.77;1.10;;;25.50;46.80;;;;;;4941596;28;20578;-80
2022/08/25 01:30:13;;;;;;;1.97;1.03;;;25.50;46.80;;;;;;4957300;28;20630;-79
2022/08/25 01:32:39;;;;;;;4.07;1.10;;;25.50;46.70;;;;;;4957455;28;20599;-79
2022/08/25 01:35:05;;;;;;;4.17;1.30;;;25.40;47.10;;;;;;4974810;28;20671;-79
2022/08/25 01:37:34;;;;;;;2.40;1.33;;;25.50;47.30;;;;;;4974885;28;20187;-79
2022/08/25 01:39:59;;;;;;;3.17;1.10;;;25.40;46.70;;;;;;4956842;28;20673;-78
2022/08/25 01:42:42;;;;;;;2.43;1.00;;;25.40;46.80;;;;;;4974472;28;20622;-79
2022/08/25 01:45:09;;;;;;;1.83;1.40;;;25.30;47.10;;;;;;4974476;28;20517;-78
2022/08/25 01:47:36;;;;;;;1.60;1.00;;;25.30;46.80;;;;;;4974152;28;20605;-78
2022/08/25 01:50:04;;;;;;;2.60;1.23;;;25.30;46.80;;;;;;4974016;28;20567;-78
2022/08/25 01:52:58;;;;;;;2.47;1.03;;;25.30;46.90;;;;;;4974240;28;20625;-78
2022/08/25 01:55:24;;;;;;;2.77;1.10;;;25.20;47.10;;;;;;4957202;28;20981;-78
2022/08/25 01:57:50;;;;;;;2.30;1.20;;;25.20;47.00;;;;;;4974721;28;20575;-79
2022/08/25 02:00:18;;;;;;;2.87;1.20;;;25.20;47.00;;;;;;4977119;28;20615;-78
2022/08/25 02:02:45;;;;;;;4.30;1.60;;;25.20;47.20;;;;;;4957221;28;20630;-78
2022/08/25 02:05:12;;;;;;;2.00;1.23;;;25.10;47.20;;;;;;4974393;28;20563;-78
2022/08/25 02:07:41;;;;;;;2.13;1.00;;;25.10;47.30;;;;;;4956822;28;21550;-78
2022/08/25 02:10:07;;;;;;;3.27;1.13;;;25.10;47.40;;;;;;4973656;28;20662;-78
2022/08/25 02:12:35;;;;;;;1.90;1.17;;;25.10;47.40;;;;;;4973719;28;20618;-79
2022/08/25 02:15:04;;;;;;;3.53;1.10;;;25.10;47.50;;;;;;4956756;28;20571;-79
2022/08/25 02:17:30;;;;;;;2.10;1.20;;;25.10;48.00;;;;;;4956645;28;20586;-80
2022/08/25 02:19:56;;;;;;;2.23;1.20;;;25.10;47.60;;;;;;4973401;28;20626;-78
2022/08/25 02:22:23;;;;;;;3.07;2.03;;;25.10;47.70;;;;;;4956410;28;20603;-79
2022/08/25 02:24:49;;;;;;;1.60;1.00;;;25.10;47.80;;;;;;4956535;28;20622;-79
2022/08/25 02:27:15;;;;;;;2.00;1.10;;;25.10;47.90;;;;;;4973763;28;20575;-79
2022/08/25 02:29:41;;;;;;;4.80;1.40;;;25.00;47.80;;;;;;4973601;28;20568;-79
2022/08/25 02:32:07;;;;;;;3.30;1.27;;;25.00;47.90;;;;;;4973266;28;20949;-79
2022/08/25 02:34:34;;;;;;;3.30;1.20;;;25.00;48.20;;;;;;4973863;28;20175;-79
2022/08/25 02:37:00;;;;;;;3.10;1.40;;;25.00;48.30;;;;;;4977308;28;20578;-79
2022/08/25 02:39:26;;;;;;;2.37;1.20;;;24.90;48.30;;;;;;4973247;28;20618;-79
2022/08/25 02:41:52;;;;;;;1.80;1.37;;;24.90;48.40;;;;;;4973309;28;20950;-79
2022/08/25 02:44:18;;;;;;;3.03;1.33;;;24.80;48.30;;;;;;4973568;28;20167;-79
2022/08/25 02:46:43;;;;;;;2.37;1.43;;;24.80;48.40;;;;;;4973358;28;20172;-79
2022/08/25 02:49:09;;;;;;;3.60;1.27;;;24.70;48.50;;;;;;4973501;28;20249;-79
2022/08/25 02:51:35;;;;;;;2.10;1.20;;;24.70;48.50;;;;;;4973230;28;20211;-78
2022/08/25 02:54:04;;;;;;;2.90;1.27;;;24.70;48.70;;;;;;4955828;28;20199;-78
2022/08/25 02:56:31;;;;;;;1.63;1.03;;;24.70;48.80;;;;;;4955872;28;20700;-78
2022/08/25 02:58:57;;;;;;;3.13;1.20;;;24.70;48.90;;;;;;4972501;28;20579;-79
2022/08/25 03:01:23;;;;;;;3.10;1.33;;;24.60;48.90;;;;;;4955611;28;20733;-78
2022/08/25 03:03:50;;;;;;;2.67;1.27;;;24.60;49.20;;;;;;4973058;28;20690;-78
2022/08/25 03:06:19;;;;;;;3.17;1.33;;;24.60;49.70;;;;;;4973269;28;21183;-77
2022/08/25 03:08:45;;;;;;;3.43;1.43;;;24.60;49.20;;;;;;4972850;28;20566;-79
2022/08/25 03:11:11;;;;;;;2.53;1.00;;;24.60;49.30;;;;;;4972837;28;20560;-79
2022/08/25 03:13:37;;;;;;;2.20;1.37;;;24.60;49.30;;;;;;4977440;28;20617;-78
2022/08/25 03:16:05;;;;;;;2.10;1.40;;;24.60;49.60;;;;;;4955651;28;20630;-78
2022/08/25 03:18:31;;;;;;;3.10;1.10;;;24.60;49.70;;;;;;4973008;28;20518;-78
2022/08/25 03:20:57;;;;;;;2.07;1.20;;;24.50;49.60;;;;;;4972261;28;20615;-78
2022/08/25 03:23:23;;;;;;;7.80;1.30;;;24.50;49.70;;;;;;4972521;28;20627;-78
2022/08/25 03:28:34;;;;;;;1.90;1.23;;;24.50;49.90;;;;;;4972757;28;20646;-78
2022/08/25 03:31:00;;;;;;;3.23;1.73;;;24.50;50.20;;;;;;4972506;28;20626;-77
2022/08/25 03:33:29;;;;;;;3.63;1.20;;;24.50;50.30;;;;;;4972221;28;20706;-78
2022/08/25 03:35:55;;;;;;;2.83;1.73;;;24.50;50.20;;;;;;4955312;28;20575;-77
2022/08/25 03:38:24;;;;;;;2.33;1.20;;;24.40;50.10;;;;;;4972542;28;20666;-78
2022/08/25 03:40:51;;;;;;;3.90;1.27;;;24.40;50.40;;;;;;4972213;28;20615;-78
2022/08/25 03:43:17;;;;;;;2.60;1.70;;;24.40;50.40;;;;;;4972458;28;20678;-77
2022/08/25 03:45:45;;;;;;;5.77;2.10;;;24.40;50.70;;;;;;4972618;28;20567;-78
2022/08/25 03:48:11;;;;;;;4.30;1.30;;;24.40;51.20;;;;;;4973633;28;20614;-78
2022/08/25 03:50:46;;;;;;;2.43;1.70;;;24.40;50.80;;;;;;4981451;28;20642;-77
2022/08/25 03:53:12;;;;;;;3.20;1.70;;;24.40;51.10;;;;;;4972502;28;20670;-77
2022/08/25 03:55:39;;;;;;;3.20;1.40;;;24.40;50.90;;;;;;4973125;28;20700;-77
2022/08/25 03:58:05;;;;;;;3.13;1.47;;;24.40;51.00;;;;;;4976524;28;21036;-77
2022/08/25 04:00:31;;;;;;;4.03;1.97;;;24.30;51.10;;;;;;4961787;28;20669;-77
2022/08/25 04:02:56;;;;;;;2.00;1.20;;;24.30;51.50;;;;;;4958233;28;20661;-78
2022/08/25 04:05:22;;;;;;;2.67;1.13;;;24.30;51.30;;;;;;4943120;28;20200;-79
2022/08/25 04:07:48;;;;;;;2.77;1.80;;;24.20;51.70;;;;;;4976984;28;20180;-80
2022/08/25 04:10:14;;;;;;;2.50;1.60;;;24.20;51.50;;;;;;4957873;28;20265;-80
2022/08/25 04:12:40;;;;;;;3.43;1.60;;;24.20;51.70;;;;;;4958991;23;20234;-84
2022/08/25 04:15:08;;;;;;;4.43;1.60;;;24.10;51.80;;;;;;4961006;28;20607;-82
2022/08/25 04:17:37;;;;;;;2.57;1.30;;;24.10;51.80;;;;;;4964019;28;20579;-86
2022/08/25 04:20:04;;;;;;;3.70;1.43;;;24.10;52.20;;;;;;4976768;28;20725;-85
2022/08/25 04:22:31;;;;;;;8.67;1.90;;;24.10;52.20;;;;;;4937676;28;20586;-84
2022/08/25 04:24:58;;;;;;;3.00;1.47;;;24.00;52.20;;;;;;4965103;28;20701;-85
2022/08/25 04:27:24;;;;;;;2.47;1.67;;;24.00;52.30;;;;;;4962935;28;20686;-87
2022/08/25 04:29:49;;;;;;;3.30;2.23;;;24.00;52.40;;;;;;4979575;28;20598;-86
2022/08/25 04:32:15;;;;;;;3.10;1.90;;;24.00;52.50;;;;;;4953163;28;20236;-86
2022/08/25 04:34:42;;;;;;;3.23;1.40;;;24.00;52.60;;;;;;4953119;28;20200;-86
2022/08/25 04:37:08;;;;;;;5.47;1.60;;;24.00;52.80;;;;;;4984381;28;20183;-85
2022/08/25 04:39:34;;;;;;;2.83;1.43;;;24.00;52.90;;;;;;4969471;28;20574;-84
2022/08/25 04:42:00;;;;;;;2.00;1.30;;;24.00;53.10;;;;;;4969395;28;20610;-85
2022/08/25 04:44:27;;;;;;;4.73;2.23;;;23.90;53.40;;;;;;4984558;28;20611;-86
2022/08/25 04:46:52;;;;;;;3.23;2.20;;;23.90;53.90;;;;;;4965964;28;20582;-86
2022/08/25 04:49:18;;;;;;;3.07;1.60;;;23.90;53.60;;;;;;4971458;28;20558;-86
2022/08/25 04:51:44;;;;;;;2.37;1.47;;;23.90;53.70;;;;;;4973521;28;20597;-82
2022/08/25 04:54:15;;;;;;;6.90;2.50;;;23.90;54.20;;;;;;4942236;28;20231;-85
2022/08/25 04:56:42;;;;;;;2.77;2.00;;;23.90;54.10;;;;;;4985001;28;20563;-81
2022/08/25 04:59:13;;;;;;;1.90;1.30;;;23.90;54.50;;;;;;4980956;28;20563;-84
2022/08/25 05:01:41;;;;;;;4.60;1.60;;;23.90;54.60;;;;;;4943247;28;20629;-83
2022/08/25 05:04:09;;;;;;;3.00;1.90;;;23.90;54.60;;;;;;4957994;28;20618;-83
2022/08/25 05:06:36;;;;;;;2.77;1.67;;;23.90;54.90;;;;;;4958323;28;20610;-84
2022/08/25 05:09:03;;;;;;;5.33;2.37;;;24.00;54.90;;;;;;4942401;28;20614;-83
2022/08/25 05:11:29;;;;;;;3.57;1.97;;;24.00;55.30;;;;;;4942641;28;20602;-84
2022/08/25 05:13:56;;;;;;;3.10;1.60;;;24.00;55.60;;;;;;4960776;28;20638;-83
2022/08/25 05:16:24;;;;;;;3.93;2.17;;;24.00;55.40;;;;;;4960715;28;20579;-83
2022/08/25 05:18:50;;;;;;;3.90;2.20;;;24.00;55.70;;;;;;4959522;28;20575;-84
2022/08/25 05:21:19;;;;;;;4.50;2.20;;;24.00;56.20;;;;;;4942085;28;20721;-83
2022/08/25 05:23:46;;;;;;;3.90;2.00;;;24.00;56.00;;;;;;4958937;28;20622;-82
2022/08/25 05:26:15;;;;;;;2.87;1.80;;;24.00;56.40;;;;;;4958753;28;20563;-80
2022/08/25 05:28:41;;;;;;;3.53;2.17;;;24.00;56.40;;;;;;4959043;28;21003;-82
2022/08/25 05:31:09;;;;;;;3.00;2.20;;;24.10;56.50;;;;;;4978987;28;20936;-81
2022/08/25 05:33:36;;;;;;;4.73;2.07;;;24.10;56.60;;;;;;4957837;28;20662;-82
2022/08/25 05:36:02;;;;;;;3.10;2.20;;;24.10;56.70;;;;;;4957769;28;20578;-82
2022/08/25 05:38:28;;;;;;;4.53;1.80;;;24.10;56.90;;;;;;4957737;28;20965;-82
2022/08/25 05:41:01;;;;;;;3.23;2.30;;;24.10;57.30;;;;;;4956991;28;20655;-82
2022/08/25 05:43:27;;;;;;;2.80;1.90;;;24.10;57.40;;;;;;4974617;28;20282;-82
2022/08/25 05:45:54;;;;;;;5.53;2.20;;;24.20;57.60;;;;;;4974634;28;20706;-82
2022/08/25 05:48:20;;;;;;;3.70;2.43;;;24.20;58.10;;;;;;4975320;28;20770;-82
2022/08/25 05:50:53;;;;;;;3.20;2.60;;;24.20;58.00;;;;;;4981705;28;20689;-81
2022/08/25 05:53:28;;;;;;;7.27;2.73;;;24.30;58.40;;;;;;5002543;28;20606;-81
2022/08/25 05:55:56;;;;;;;2.80;1.73;;;24.20;58.30;;;;;;4980957;28;20620;-82
2022/08/25 05:58:23;;;;;;;7.10;2.13;;;24.40;58.20;;;;;;5011324;28;20577;-82
2022/08/25 06:00:52;;;;;;;8.27;2.93;;;24.40;58.30;;;;;;4993969;28;21204;-82
2022/08/25 06:03:18;;;;;;;2.70;1.80;;;24.50;58.80;;;;;;4962434;28;20641;-80
2022/08/25 06:05:44;;;;;;;4.13;2.70;;;24.50;58.60;;;;;;4983255;28;20181;-81
2022/08/25 06:08:10;;;;;;;7.13;2.50;;;24.60;58.80;;;;;;4983193;28;20174;-79
2022/08/25 06:10:36;;;;;;;3.50;2.80;;;24.60;59.10;;;;;;4974295;28;20649;-79
2022/08/25 06:13:03;;;;;;;3.03;2.50;;;24.70;59.10;;;;;;4971865;28;20649;-81
2022/08/25 06:15:29;;;;;;;5.60;2.47;;;24.70;59.20;;;;;;4975209;28;20598;-79
2022/08/25 06:18:00;;;;;;;6.07;3.10;;;24.80;60.20;;;;;;4960294;28;20625;-81
2022/08/25 06:20:29;;;;;;;3.90;2.50;;;24.80;59.50;;;;;;4937092;28;20638;-79
2022/08/25 06:22:55;;;;;;;5.77;2.67;;;24.90;59.50;;;;;;4957644;28;20649;-80
2022/08/25 06:25:24;;;;;;;5.30;2.67;;;25.00;59.60;;;;;;4982634;28;20693;-79
2022/08/25 06:27:50;;;;;;;2.97;2.50;;;25.10;59.60;;;;;;4973347;28;20586;-80
2022/08/25 06:30:18;;;;;;;3.60;2.17;;;25.20;59.70;;;;;;4978208;28;20612;-81
2022/08/25 06:32:46;;;;;;;4.83;2.73;;;25.40;60.00;;;;;;4964050;28;20605;-80
2022/08/25 06:35:15;;;;;;;2.90;2.60;;;26.00;61.60;;;;;;4979897;28;20670;-79
2022/08/25 06:37:41;;;;;;;3.20;2.20;;;26.80;61.80;;;;;;4973617;28;20559;-79
2022/08/25 06:40:09;;;;;;;3.90;2.10;;;27.70;61.10;;;;;;4956126;28;20777;-78
2022/08/25 06:42:36;;;;;;;3.50;2.23;;;28.60;60.10;;;;;;4983821;28;20576;-78
2022/08/25 06:45:03;;;;;;;4.57;2.33;;;29.60;59.30;;;;;;4966509;28;20563;-80
2022/08/25 06:47:28;;;;;;;3.50;2.10;;;30.50;58.50;;;;;;4976818;28;20606;-80
2022/08/25 06:49:54;;;;;;;2.57;2.13;;;31.20;56.10;;;;;;4962663;28;20579;-79
2022/08/25 06:52:23;;;;;;;3.83;2.50;;;31.90;54.70;;;;;;4970110;28;20166;-80
2022/08/25 06:54:49;;;;;;;4.53;2.40;;;32.50;52.30;;;;;;4959862;28;20202;-80
2022/08/25 06:57:15;;;;;;;3.80;2.47;;;32.90;50.60;;;;;;4953623;28;20580;-80
2022/08/25 06:59:41;;;;;;;4.07;2.47;;;33.00;49.20;;;;;;4991595;28;20185;-79
2022/08/25 07:02:07;;;;;;;2.63;2.00;;;33.40;49.50;;;;;;4986366;28;20180;-81
2022/08/25 07:04:35;;;;;;;3.23;1.87;;;33.70;48.50;;;;;;4955284;28;20624;-81
2022/08/25 07:07:01;;;;;;;3.13;2.30;;;34.00;47.80;;;;;;4972601;28;20175;-81
2022/08/25 07:09:27;;;;;;;2.67;1.90;;;34.20;47.30;;;;;;4956750;28;20557;-80
2022/08/25 07:11:53;;;;;;;2.10;1.50;;;34.50;47.10;;;;;;4967852;28;21200;-82
2022/08/25 07:14:18;;;;;;;3.50;2.47;;;34.80;47.10;;;;;;4973834;28;20627;-82
2022/08/25 07:16:45;;;;;;;4.00;2.20;;;35.30;45.90;;;;;;4974298;28;20175;-81
2022/08/25 07:19:11;;;;;;;2.53;1.63;;;35.60;45.60;;;;;;4957291;28;20195;-83
2022/08/25 07:21:40;;;;;;;3.40;2.23;;;35.80;45.10;;;;;;4960678;28;20686;-83
2022/08/25 07:24:09;;;;;;;4.10;1.60;;;36.10;44.30;;;;;;4968477;28;20606;-82
2022/08/25 07:26:40;;;;;;;2.57;2.10;;;36.40;44.20;;;;;;4985734;28;20603;-82
2022/08/25 07:29:35;;;;;;;2.60;1.60;;;36.90;43.20;;;;;;4981429;28;20570;-81
2022/08/25 07:32:02;;;;;;;3.20;2.30;;;37.20;43.20;;;;;;4987935;28;20594;-81
2022/08/25 07:37:20;;;;;;;2.20;1.50;;;37.40;41.20;;;;;;4984065;28;20578;-84
2022/08/25 07:39:46;;;;;;;2.20;1.60;;;37.80;41.50;;;;;;4984363;28;20597;-82
2022/08/25 07:42:12;;;;;;;3.03;1.83;;;37.80;40.30;;;;;;4983849;28;20575;-82
2022/08/25 07:44:39;;;;;;;3.30;2.20;;;37.70;40.30;;;;;;5014580;28;20195;-82
2022/08/25 07:47:04;;;;;;;2.60;1.67;;;38.00;40.20;;;;;;4996034;28;20598;-85
2022/08/25 07:49:52;;;;;;;2.10;1.70;;;38.20;39.90;;;;;;4967153;28;20645;-85
2022/08/25 07:52:24;;;;;;;4.53;2.53;;;38.60;39.90;;;;;;4956731;29;20572;-84
2022/08/25 07:54:55;;;;;;;6.17;2.53;;;38.80;39.00;;;;;;4928298;29;20604;-83
2022/08/25 07:57:28;;;;;;;2.30;1.80;;;38.80;38.50;;;;;;4943855;28;20588;-83
2022/08/25 07:59:58;;;;;;;2.97;2.07;;;38.50;37.30;;;;;;4951628;28;20664;-86
2022/08/25 08:02:25;;;;;;;4.83;2.90;;;38.10;37.40;;;;;;4956236;29;20576;-83
2022/08/25 08:04:58;;;;;;;2.37;1.60;;;38.00;37.80;;;;;;4960839;28;20583;-82
2022/08/25 08:07:30;;;;;;;2.93;2.17;;;38.10;38.40;;;;;;4944400;29;20599;-81
2022/08/25 08:09:57;;;;;;;3.10;2.00;;;38.30;37.40;;;;;;4945075;28;20572;-81
2022/08/25 08:12:25;;;;;;;2.80;2.50;;;38.30;38.00;;;;;;4946415;29;20612;-83
2022/08/25 08:14:52;;;;;;;3.30;2.20;;;38.40;37.70;;;;;;4960664;28;20611;-84
2022/08/25 08:17:19;;;;;;;4.67;1.47;;;38.50;37.60;;;;;;4977289;28;20636;-85
2022/08/25 08:19:50;;;;;;;4.93;2.10;;;38.80;38.00;;;;;;4946497;28;20655;-84
2022/08/25 08:22:17;;;;;;;3.13;2.10;;;39.00;37.20;;;;;;4963569;28;20602;-83
2022/08/25 08:24:45;;;;;;;3.50;2.50;;;39.00;36.80;;;;;;4979433;28;20649;-83
2022/08/25 08:27:12;;;;;;;3.37;2.27;;;39.00;36.90;;;;;;4984078;28;20601;-82
2022/08/25 08:29:40;;;;;;;4.60;2.20;;;39.10;36.80;;;;;;5012970;28;20609;-83
2022/08/25 08:32:09;;;;;;;4.27;2.50;;;39.30;36.70;;;;;;4971549;28;20682;-82
2022/08/25 08:34:36;;;;;;;2.83;1.97;;;39.30;35.80;;;;;;4974795;28;20610;-83
2022/08/25 08:37:05;;;;;;;3.70;2.27;;;39.30;35.90;;;;;;4950440;28;20657;-83
2022/08/25 08:39:31;;;;;;;2.37;2.17;;;39.20;36.10;;;;;;4968981;28;20579;-83
2022/08/25 08:42:52;;;;;;;2.10;1.80;;;39.10;36.10;;;;;;4966842;28;20619;-83
2022/08/25 08:45:43;;;;;;;2.50;1.87;;;39.30;36.50;;;;;;4888402;29;20230;-82
2022/08/25 08:48:24;;;;;;;7.90;1.97;;;39.60;36.70;;;;;;4956123;28;21143;-87
2022/08/25 08:51:19;;;;;;;2.20;1.57;;;39.80;36.00;;;;;;4955818;28;20950;-87
2022/08/25 08:54:12;;;;;;;3.17;2.03;;;40.00;35.90;;;;;;4917219;28;20637;-87
2022/08/25 08:56:42;;;;;;;3.80;1.87;;;40.40;36.30;;;;;;4952091;28;20642;-86
2022/08/25 08:59:17;;;;;;;2.80;2.00;;;40.80;35.50;;;;;;4944735;28;20575;-88
2022/08/25 09:01:58;;;;;;;4.00;2.17;;;41.10;35.40;;;;;;4979363;28;20574;-88
2022/08/25 09:04:42;;;;;;;3.00;1.73;;;41.20;34.70;;;;;;5002052;28;20962;-87
2022/08/25 09:07:20;;;;;;;2.90;1.70;;;41.40;34.20;;;;;;4970957;28;20570;-86
2022/08/25 09:09:49;;;;;;;2.13;1.50;;;41.40;34.10;;;;;;4974383;28;20633;-86
2022/08/25 09:12:24;;;;;;;2.10;1.80;;;41.70;34.80;;;;;;4946028;28;20621;-85
2022/08/25 09:15:05;;;;;;;3.70;1.40;;;42.30;34.70;;;;;;4958617;28;20629;-86
2022/08/25 09:17:56;;;;;;;5.97;2.60;;;42.80;34.50;;;;;;4964200;28;20598;-88
2022/08/25 09:20:51;;;;;;;2.90;1.70;;;43.20;33.50;;;;;;4969756;28;20571;-87
2022/08/25 09:23:31;;;;;;;2.60;1.87;;;43.00;32.50;;;;;;4971809;28;20606;-87
2022/08/25 09:26:21;;;;;;;3.80;1.60;;;43.10;32.50;;;;;;4966949;28;20571;-88
2022/08/25 09:28:52;;;;;;;2.40;2.13;;;43.30;32.70;;;;;;4983312;28;20577;-86
2022/08/25 09:31:23;;;;;;;5.30;2.20;;;43.60;32.30;;;;;;4983735;28;20713;-85
2022/08/25 09:33:54;;;;;;;2.67;2.03;;;43.50;31.60;;;;;;4984330;28;20611;-85
2022/08/25 09:36:20;;;;;;;2.47;1.90;;;43.30;31.20;;;;;;4968929;28;20622;-86
2022/08/25 09:38:46;;;;;;;3.10;1.40;;;43.10;31.30;;;;;;4984315;28;20615;-85
2022/08/25 09:41:16;;;;;;;3.83;1.57;;;43.10;31.60;;;;;;4984093;28;20167;-85
2022/08/25 09:43:52;;;;;;;2.90;1.47;;;42.90;31.00;;;;;;5001272;28;20599;-85
2022/08/25 09:46:26;;;;;;;2.83;1.90;;;42.90;31.10;;;;;;4968299;28;20610;-85
2022/08/25 09:49:10;;;;;;;3.10;1.40;;;42.90;31.30;;;;;;4968779;28;20583;-86
2022/08/25 09:51:40;;;;;;;3.17;1.50;;;43.10;31.60;;;;;;4977727;28;20693;-87
2022/08/25 09:54:12;;;;;;;2.80;1.60;;;43.10;30.80;;;;;;4961031;28;20711;-87
2022/08/25 09:56:57;;;;;;;1.70;1.40;;;43.10;31.10;;;;;;4964082;28;20571;-87
2022/08/25 09:59:28;;;;;;;3.10;1.87;;;43.40;31.40;;;;;;4995593;28;20582;-86
2022/08/25 10:02:03;;;;;;;2.83;2.33;;;43.50;30.20;;;;;;4974317;28;20626;-84
2022/08/25 10:04:32;;;;;;;6.57;1.43;;;43.30;29.90;;;;;;4945093;28;20998;-84
2022/08/25 10:07:00;;;;;;;2.47;1.50;;;43.10;30.10;;;;;;4960293;28;20572;-85
2022/08/25 10:09:38;;;;;;;4.37;1.70;;;43.10;30.30;;;;;;4958928;28;20583;-85
2022/08/25 10:12:23;;;;;;;4.10;1.53;;;42.90;30.20;;;;;;4959547;28;21124;-84
2022/08/25 10:14:50;;;;;;;2.50;1.93;;;43.00;30.40;;;;;;4970332;28;20637;-84
2022/08/25 10:17:23;;;;;;;2.47;1.20;;;43.20;30.40;;;;;;4981170;28;20563;-87
2022/08/25 10:20:12;;;;;;;1.90;1.30;;;43.10;30.50;;;;;;4976549;28;20637;-87
2022/08/25 10:22:40;;;;;;;2.07;1.87;;;43.30;30.30;;;;;;4983819;28;20585;-87
2022/08/25 10:25:09;;;;;;;2.80;1.50;;;43.10;29.90;;;;;;4990503;28;20575;-88
2022/08/25 10:30:15;;;;;;;2.13;1.23;;;42.90;29.80;;;;;;4951787;29;20675;-73
2022/08/25 10:33:08;;;;;;;2.07;1.47;;;42.90;30.10;;;;;;4953313;29;20619;-73
2022/08/25 10:35:55;;;;;;;3.40;1.90;;;43.00;30.00;;;;;;4948917;29;20588;-74
2022/08/25 10:38:44;;;;;;;3.77;1.70;;;43.10;30.50;;;;;;4958404;28;20987;-74
2022/08/25 10:41:32;;;;;;;5.70;1.63;;;43.20;30.00;;;;;;4957609;28;20591;-74
2022/08/25 10:45:41;;;;;;;10.63;1.60;;;43.00;29.70;;;;;;4971289;28;20638;-74
2022/08/25 10:47:13;;;;;;;1.50;1.23;;;43.20;30.00;;;;;;4946399;28;21387;-74
2022/08/25 10:49:46;;;;;;;5.03;1.70;;;43.30;29.90;;;;;;4963435;28;20992;-73
2022/08/25 10:52:56;;;;;;;2.10;1.50;;;42.90;29.00;;;;;;4947849;28;20590;-73
2022/08/25 10:55:47;;;;;;;2.90;1.30;;;42.50;28.90;;;;;;4961824;28;20595;-73
2022/08/25 10:58:21;;;;;;;1.80;1.40;;;42.40;29.20;;;;;;4970737;28;20642;-73
2022/08/25 11:00:58;;;;;;;2.43;1.23;;;42.10;29.10;;;;;;4941959;28;20730;-73
2022/08/25 11:03:29;;;;;;;3.60;1.50;;;42.10;29.60;;;;;;4972723;28;20933;-74
2022/08/25 11:06:03;;;;;;;1.77;1.13;;;42.30;30.00;;;;;;4972892;28;21139;-73
2022/08/25 11:08:38;;;;;;;3.37;1.90;;;42.70;29.80;;;;;;4971546;28;20673;-74
2022/08/25 11:11:35;;;;;;;3.10;1.40;;;42.70;29.60;;;;;;4952098;28;20645;-74
2022/08/25 11:14:28;;;;;;;2.03;1.20;;;42.70;29.30;;;;;;4969105;28;20694;-74
2022/08/25 11:17:15;;;;;;;1.87;1.53;;;42.40;29.30;;;;;;4971843;28;20594;-74
2022/08/25 11:19:44;;;;;;;3.20;2.10;;;42.40;28.90;;;;;;4971970;28;20773;-74
2022/08/25 11:22:38;;;;;;;2.10;1.83;;;42.40;29.30;;;;;;4953942;29;20579;-74
2022/08/25 11:25:21;;;;;;;3.93;1.37;;;42.20;29.20;;;;;;4958454;28;20599;-74
2022/08/25 11:28:05;;;;;;;2.78;1.95;;;42.10;30.00;;;;;;4970253;28;20738;-73
2022/08/25 11:30:32;;;;;;;2.90;1.20;;;42.30;29.50;;;;;;4972255;28;20653;-73
2022/08/25 11:32:58;;;;;;;2.80;1.40;;;42.40;29.40;;;;;;4955332;28;20574;-73
2022/08/25 11:35:31;;;;;;;2.57;1.87;;;42.40;29.20;;;;;;4972668;28;20894;-74
2022/08/25 11:38:35;;;;;;;1.67;1.30;;;42.10;28.90;;;;;;4973071;28;20735;-74
2022/08/25 11:41:14;;;;;;;2.53;1.50;;;41.90;29.20;;;;;;4948901;28;20936;-73
2022/08/25 11:44:06;;;;;;;1.57;1.13;;;42.00;29.70;;;;;;4972726;28;20670;-74
2022/08/25 11:46:41;;;;;;;1.70;1.23;;;41.80;28.90;;;;;;4972480;28;20575;-73
2022/08/25 11:49:26;;;;;;;1.90;1.50;;;41.50;29.00;;;;;;4962231;28;20629;-74
2022/08/25 11:51:52;;;;;;;5.80;1.30;;;41.40;28.80;;;;;;4970421;28;20741;-74
2022/08/25 11:54:28;;;;;;;2.40;1.60;;;41.30;28.80;;;;;;4939023;28;20694;-73
2022/08/25 11:57:18;;;;;;;2.53;1.53;;;41.10;28.80;;;;;;4972639;28;20176;-73
2022/08/25 11:59:53;;;;;;;2.30;1.70;;;40.80;28.70;;;;;;4970376;28;20966;-73
2022/08/25 12:02:57;;;;;;;2.83;1.47;;;40.30;28.50;;;;;;4965756;28;20582;-73
2022/08/25 12:05:30;;;;;;;2.90;2.03;;;40.00;28.80;;;;;;4955559;28;20694;-74
2022/08/25 12:11:06;;;;;;;1.80;1.20;;;39.40;28.90;;;;;;4967596;28;21050;-73
2022/08/25 12:13:42;;;;;;;2.53;1.40;;;39.10;29.10;;;;;;4972300;28;20590;-74
2022/08/25 12:16:33;;;;;;;2.33;1.63;;;39.00;29.20;;;;;;4972324;28;20562;-74
2022/08/25 12:19:33;;;;;;;2.23;1.63;;;38.80;28.90;;;;;;4955117;28;21474;-75
2022/08/25 12:22:02;;;;;;;4.20;1.97;;;38.60;28.80;;;;;;4954972;28;20676;-74
2022/08/25 12:24:43;;;;;;;3.97;2.10;;;38.40;29.20;;;;;;4972377;28;20647;-73
2022/08/25 12:27:09;;;;;;;2.67;1.90;;;38.30;29.60;;;;;;4972332;28;20563;-74
2022/08/25 12:29:47;;;;;;;5.13;1.90;;;38.10;29.60;;;;;;4952335;28;21091;-74
2022/08/25 12:32:30;;;;;;;3.37;2.07;;;38.00;29.90;;;;;;4975677;28;20609;-74
2022/08/25 12:35:18;;;;;;;11.93;2.40;;;37.90;30.00;;;;;;4977362;28;20573;-74
2022/08/25 12:37:53;;;;;;;6.90;2.63;;;37.90;30.10;;;;;;4975888;28;20609;-74
2022/08/25 12:40:27;;;;;;;3.40;1.80;;;38.00;30.60;;;;;;4958585;28;20577;-74
2022/08/25 12:43:06;;;;;;;2.00;1.60;;;38.10;30.80;;;;;;4971609;28;20614;-75
2022/08/25 12:45:34;;;;;;;2.90;2.13;;;38.20;30.80;;;;;;4969452;28;20582;-74
2022/08/25 12:48:39;;;;;;;2.97;1.70;;;38.30;30.30;;;;;;4972479;28;20632;-74
2022/08/25 12:51:16;;;;;;;2.63;1.23;;;38.00;29.80;;;;;;4974832;28;20663;-74
2022/08/25 12:54:09;;;;;;;1.80;1.40;;;37.80;29.50;;;;;;4958101;28;20598;-74
2022/08/25 12:56:41;;;;;;;3.60;1.97;;;37.50;29.40;;;;;;4956232;28;20603;-74
2022/08/25 12:59:22;;;;;;;3.03;1.80;;;37.20;29.40;;;;;;4967310;28;20718;-74
2022/08/25 13:02:29;;;;;;;3.30;2.30;;;36.90;29.70;;;;;;4957914;28;21230;-73
2022/08/25 13:05:34;;;;;;;4.07;2.00;;;36.60;30.00;;;;;;4958033;28;20622;-74
2022/08/25 13:08:18;;;;;;;5.37;1.67;;;36.30;30.10;;;;;;4975380;28;21190;-74
2022/08/25 13:11:03;;;;;;;3.13;1.70;;;36.10;30.20;;;;;;4975209;28;20674;-74
2022/08/25 13:14:03;;;;;;;2.37;1.73;;;36.00;30.60;;;;;;4975432;28;20982;-75
2022/08/25 13:16:29;;;;;;;3.00;1.40;;;35.80;30.70;;;;;;4941896;28;20688;-74
2022/08/25 13:18:58;;;;;;;2.03;1.80;;;35.70;30.40;;;;;;4974948;28;20992;-75
2022/08/25 13:21:32;;;;;;;4.40;2.27;;;35.50;30.70;;;;;;4957400;28;21225;-74
2022/08/25 13:24:03;;;;;;;3.87;2.70;;;35.40;30.70;;;;;;4975187;28;20586;-75